Piedmont Triad International Airport Greensboro US
ICAO: KGSO
IATA: GSO
Category: Large
Scheduled Services: Yes

Elevation: 925 ft
TransAlt. 18000 ft.

Airport Communications:
APP/DEP:118.5
ATIS:128.55
CLNC DEL:121.75
GND:121.9
TWR:119.1
UNICOM:122.95

KGSO Zoom In..

Runways:

(A) RW 05L length 9000 ft width 150 ft
ILS 109.55 / hdg 54

(B) RW 05R length 10001 ft width 150 ft
ILS 111.90 / hdg 54

(C) RW 14 length 6380 ft width 150 ft
ILS 109.90 / hdg 143

(D) RW 23L length 10001 ft width 150 ft
ILS 109.30 / hdg 234

(E) RW 23R length 9000 ft width 150 ft
ILS 109.55 / hdg 234

(F) RW 32 length 6380 ft width 150 ft
---- / hdg 323

Location; KGSO
Day. 23 / Time. 10.03 Zulu
* Altimeter: 29.84
* Temperature: 19° c. 66.2°f.
* Wind from: 030° Speed 04 kn.
Dewpoint: 19° c.
Visibility: 2 Statute Miles.
Clouds: Overcast 200 ft.
Conditions: Mist.

KGSO 231003Z 03004KT 2SM BR OVC002 19/19 A2984 RMK AO2 T01940194 $


Wind From 030°
Speed 04 kn.

 
 
jpsmedia.com for Web Design worldairports.se 2018   terms of use